Overview Statistics Trail Chart Weather Telemetry Raw packets
 

This is the latest recevied weather packets stored in our database for station/object LKCS. If no packets are shown the sender has not sent any weather packets the latest 10 day(s).

<< 3 4 5 6 7 8 9 >>
Time Temp. Humidity Pressure Rain* Wind** Luminosity Snow
1788601986 18.89° C 68% 1021 hPa - - - -
1788601746 18.89° C 68% 1021 hPa - - - -
1788601409 18.89° C 68% 1021 hPa - - - -
1788601087 18.89° C 68% 1021 hPa - - - -
1788600306 17.78° C 72% 1021 hPa - - - -
1788600026 17.78° C 72% 1021 hPa - - - -
1788599347 17.78° C 72% 1021 hPa - - - -
1788598973 17.78° C 72% 1021 hPa - - - -
1788597786 17.22° C 77% 1021 hPa - - - -
1788597158 17.22° C 77% 1021 hPa - - - -
1788595369 16.11° C 82% 1021 hPa - - - -
1788593565 15° C 87% 1021 hPa - - - -
1788591794 13.89° C 93% 1020 hPa - - - -
1788589959 13.89° C 87% 1020 hPa - - - -
1788588173 12.78° C 93% 1020 hPa - - - -
1788586350 13.89° C 87% 1021 hPa - - - -
1788584570 15° C 87% 1020 hPa - - - -
1788582785 16.11° C 82% 1020 hPa - - - -
1788580987 16.11° C 93% 1019 hPa - - - -
1788579158 17.22° C 82% 1018 hPa - - - -
1788577387 16.11° C 93% 1018 hPa - - - -
1788575551 17.22° C 77% 1017 hPa - - - -
1788573760 17.78° C 72% 1017 hPa - - - -
1788571958 18.89° C 68% 1017 hPa - - - -
1788570966 21.11° C 64% 1016 hPa - - - -

* Rain since midnight (hover to see other rain measurements)
** Current wind speed in m/s (hover to see current wind gust speed)